createdAt,value
2023-04-19T00:02:18.393Z,16.27
2023-04-19T00:04:48.318Z,14.23
2023-04-19T00:07:16.958Z,14.10
2023-04-19T00:09:44.427Z,13.70
2023-04-19T00:12:11.811Z,13.77
2023-04-19T00:14:39.197Z,12.65
2023-04-19T00:17:06.640Z,11.70
2023-04-19T00:19:34.042Z,11.57
2023-04-19T00:22:02.749Z,11.13
2023-04-19T00:24:30.177Z,11.18
2023-04-19T00:26:58.947Z,11.55
2023-04-19T00:29:26.339Z,10.95
2023-04-19T00:31:53.813Z,10.40
2023-04-19T00:34:21.401Z,11.27
2023-04-19T00:36:48.884Z,10.45
2023-04-19T00:39:17.594Z,8.90
2023-04-19T00:41:45.013Z,9.50
2023-04-19T00:44:12.459Z,9.90
2023-04-19T00:46:40.285Z,9.63
2023-04-19T00:49:08.249Z,9.10
2023-04-19T00:51:36.072Z,9.35
2023-04-19T00:54:04.243Z,9.38
2023-04-19T00:56:34.977Z,9.25
2023-04-19T00:59:02.958Z,8.88
2023-04-19T01:01:30.373Z,8.60
2023-04-19T01:03:57.922Z,8.27
2023-04-19T01:06:25.561Z,8.75
2023-04-19T01:08:52.930Z,8.10
2023-04-19T01:11:20.446Z,8.25
2023-04-19T01:13:49.152Z,8.85
2023-04-19T01:16:16.710Z,8.77
2023-04-19T01:18:44.123Z,7.50
2023-04-19T01:21:12.731Z,8.35
2023-04-19T01:23:41.453Z,8.40
2023-04-19T01:26:08.886Z,8.18
2023-04-19T01:28:36.272Z,8.15
2023-04-19T01:31:03.777Z,8.50
2023-04-19T01:33:31.230Z,8.10
2023-04-19T01:35:58.632Z,7.70
2023-04-19T01:38:26.046Z,8.02
2023-04-19T01:40:56.760Z,8.55
2023-04-19T01:43:24.144Z,8.05
2023-04-19T01:45:51.629Z,8.20
2023-04-19T01:48:19.055Z,8.85
2023-04-19T01:50:46.472Z,8.35
2023-04-19T01:53:13.988Z,9.32
2023-04-19T01:55:41.392Z,8.35
2023-04-19T01:58:10.061Z,7.93
2023-04-19T02:00:37.480Z,7.60
2023-04-19T02:03:05.112Z,7.75
2023-04-19T02:05:32.708Z,8.40
2023-04-19T02:08:01.239Z,8.98
2023-04-19T02:10:28.635Z,8.38
2023-04-19T02:12:56.018Z,8.38
2023-04-19T02:15:24.697Z,9.35
2023-04-19T02:17:52.134Z,8.63
2023-04-19T02:20:19.667Z,9.13
2023-04-19T02:22:47.842Z,9.35
2023-04-19T02:25:15.649Z,8.55
2023-04-19T02:27:43.066Z,9.05
2023-04-19T02:30:11.436Z,8.90
2023-04-19T02:32:40.205Z,9.18
2023-04-19T02:35:08.314Z,9.02
2023-04-19T02:37:35.674Z,9.27
2023-04-19T02:40:03.110Z,8.88
2023-04-19T02:42:30.636Z,9.07
2023-04-19T02:44:58.234Z,8.27
2023-04-19T02:47:25.659Z,9.25
2023-04-19T02:49:54.398Z,9.13
2023-04-19T02:52:21.797Z,8.68
2023-04-19T02:54:49.344Z,9.57
2023-04-19T02:57:16.728Z,9.45
2023-04-19T02:59:44.090Z,9.35
2023-04-19T03:02:11.553Z,10.02
2023-04-19T03:04:38.931Z,9.35
2023-04-19T03:07:10.739Z,9.00
2023-04-19T03:09:38.251Z,10.48
2023-04-19T03:12:06.237Z,10.40
2023-04-19T03:14:34.623Z,10.52
2023-04-19T03:17:02.015Z,11.70
2023-04-19T03:19:29.484Z,10.80
2023-04-19T03:21:56.889Z,11.13
2023-04-19T03:24:30.011Z,10.73
2023-04-19T03:26:57.494Z,11.38
2023-04-19T03:29:25.224Z,11.25
2023-04-19T03:31:52.712Z,11.48
2023-04-19T03:34:20.190Z,12.63
2023-04-19T03:36:47.558Z,12.43
2023-04-19T03:39:14.943Z,12.00
2023-04-19T03:41:43.699Z,13.50
2023-04-19T03:44:11.082Z,13.85
2023-04-19T03:46:38.558Z,13.82
2023-04-19T03:49:06.201Z,13.75
2023-04-19T03:51:33.622Z,14.85
2023-04-19T03:54:01.336Z,13.30
2023-04-19T03:56:28.866Z,13.82
2023-04-19T03:58:57.627Z,14.40
2023-04-19T04:01:25.362Z,13.82
2023-04-19T04:03:53.140Z,14.45
2023-04-19T04:06:20.732Z,14.02
2023-04-19T04:08:48.121Z,14.18
2023-04-19T04:11:15.561Z,14.60
2023-04-19T04:13:43.157Z,13.93
2023-04-19T04:16:11.951Z,14.75
2023-04-19T04:18:39.555Z,13.30
2023-04-19T04:21:07.421Z,12.40
2023-04-19T04:23:35.029Z,11.95
2023-04-19T04:26:04.244Z,12.05
2023-04-19T04:28:32.153Z,12.07
2023-04-19T04:31:00.319Z,12.13
2023-04-19T04:33:29.380Z,12.15
2023-04-19T04:35:57.843Z,11.43
2023-04-19T04:38:25.572Z,11.10
2023-04-19T04:40:54.457Z,9.95
2023-04-19T04:43:22.627Z,9.68
2023-04-19T04:45:50.526Z,9.35
2023-04-19T04:48:18.074Z,9.00
2023-04-19T04:50:46.779Z,9.88
2023-04-19T04:53:14.228Z,8.05
2023-04-19T04:55:41.761Z,8.35
2023-04-19T04:58:09.302Z,7.65
2023-04-19T05:00:36.774Z,7.82
2023-04-19T05:03:04.534Z,7.20
2023-04-19T05:05:32.073Z,7.18
2023-04-19T05:08:01.140Z,6.63
2023-04-19T05:10:28.743Z,7.18
2023-04-19T05:12:56.517Z,7.10
2023-04-19T05:15:24.136Z,6.80
2023-04-19T05:17:51.551Z,7.05
2023-04-19T05:20:19.197Z,5.97
2023-04-19T05:22:46.813Z,7.15
2023-04-19T05:25:15.693Z,7.38
2023-04-19T05:27:43.087Z,6.78
2023-04-19T05:30:10.848Z,6.57
2023-04-19T05:32:38.272Z,6.32
2023-04-19T05:35:06.825Z,6.18
2023-04-19T05:37:34.196Z,5.85
2023-04-19T05:40:01.607Z,4.47
2023-04-19T05:42:31.541Z,4.50
2023-04-19T05:44:58.899Z,4.97
2023-04-19T05:47:26.293Z,4.90
2023-04-19T05:49:53.676Z,4.65
2023-04-19T05:52:21.051Z,5.00
2023-04-19T05:54:48.453Z,4.57
2023-04-19T05:57:15.824Z,4.32
2023-04-19T05:59:44.556Z,4.40
2023-04-19T06:02:12.103Z,4.28
2023-04-19T06:04:39.926Z,4.13
2023-04-19T06:07:17.442Z,3.92
2023-04-19T06:09:54.539Z,3.72
2023-04-19T06:12:21.925Z,3.80
2023-04-19T06:14:51.140Z,3.25
2023-04-19T06:17:23.397Z,3.00
2023-04-19T06:19:51.069Z,3.05
2023-04-19T06:22:18.508Z,3.10
2023-04-19T06:24:46.259Z,3.38
2023-04-19T06:27:13.745Z,3.35
2023-04-19T06:29:41.400Z,3.13
2023-04-19T06:32:10.518Z,3.22
2023-04-19T06:34:37.897Z,3.25
2023-04-19T06:37:05.288Z,3.30
2023-04-19T06:39:32.744Z,2.90
2023-04-19T06:42:00.165Z,3.50
2023-04-19T06:44:27.919Z,2.53
2023-04-19T06:46:55.456Z,3.00
2023-04-19T06:49:24.454Z,2.80
2023-04-19T06:51:51.907Z,2.90
2023-04-19T06:54:19.544Z,3.22
2023-04-19T06:56:48.670Z,3.28
2023-04-19T06:59:19.685Z,3.35
2023-04-19T07:01:48.248Z,3.53
2023-04-19T07:04:16.499Z,3.55
2023-04-19T07:06:49.168Z,3.28
2023-04-19T07:09:16.829Z,3.05
2023-04-19T07:11:44.250Z,3.10
2023-04-19T07:14:11.674Z,3.40
2023-04-19T07:16:39.094Z,3.00
2023-04-19T07:19:06.501Z,2.90
2023-04-19T07:21:35.086Z,3.40
2023-04-19T07:24:03.909Z,3.50
2023-04-19T07:26:31.389Z,3.45
2023-04-19T07:28:58.768Z,3.28
2023-04-19T07:31:26.523Z,3.30
2023-04-19T07:33:54.650Z,2.55
2023-04-19T07:36:22.237Z,3.17
2023-04-19T07:38:49.746Z,3.30
2023-04-19T07:41:18.829Z,3.42
2023-04-19T07:43:46.225Z,3.25
2023-04-19T07:46:16.179Z,2.80
2023-04-19T07:48:43.770Z,3.97
2023-04-19T07:51:12.083Z,3.33
2023-04-19T07:53:41.517Z,2.83
2023-04-19T07:56:11.008Z,3.13
2023-04-19T07:58:42.304Z,3.28
2023-04-19T08:01:10.408Z,3.42
2023-04-19T08:03:38.621Z,3.25
2023-04-19T08:06:08.181Z,2.55
2023-04-19T08:08:35.710Z,3.13
2023-04-19T08:11:03.279Z,3.38
2023-04-19T08:13:31.133Z,3.05
2023-04-19T08:18:30.192Z,3.35
2023-04-19T08:20:58.151Z,3.10
2023-04-19T08:23:29.696Z,3.47
2023-04-19T08:26:05.890Z,3.05
2023-04-19T08:28:33.239Z,3.72
2023-04-19T08:31:01.976Z,3.33
2023-04-19T08:33:29.647Z,3.33
2023-04-19T08:35:57.163Z,3.33
2023-04-19T08:38:24.607Z,3.08
2023-04-19T08:40:55.022Z,3.30
2023-04-19T08:43:22.626Z,3.55
2023-04-19T08:45:51.330Z,3.80
2023-04-19T08:48:20.154Z,3.65
2023-04-19T08:51:03.665Z,3.17
2023-04-19T08:53:34.827Z,3.55
2023-04-19T08:58:52.024Z,3.90
2023-04-19T09:01:33.600Z,3.50
2023-04-19T09:04:21.697Z,3.70
2023-04-19T09:06:52.855Z,3.40
2023-04-19T09:11:52.982Z,3.70
2023-04-19T09:14:22.150Z,3.75
2023-04-19T09:16:52.012Z,4.35
2023-04-19T09:19:24.735Z,4.10
2023-04-19T09:21:54.761Z,3.50
2023-04-19T09:25:04.436Z,3.78
2023-04-19T09:27:30.122Z,3.80
2023-04-19T09:29:59.303Z,4.20
2023-04-19T09:32:27.627Z,3.95
2023-04-19T09:34:58.243Z,4.00
2023-04-19T09:37:56.829Z,3.45
2023-04-19T09:40:23.671Z,4.07
2023-04-19T09:45:29.814Z,4.05
2023-04-19T09:48:03.035Z,4.20
2023-04-19T09:50:32.728Z,4.43
2023-04-19T09:53:01.412Z,4.03
2023-04-19T09:55:31.573Z,4.40
2023-04-19T09:58:03.246Z,3.70
2023-04-19T10:00:36.022Z,3.83
2023-04-19T10:03:11.255Z,3.50
2023-04-19T10:05:42.173Z,4.03
2023-04-19T10:08:10.957Z,3.42
2023-04-19T10:10:42.430Z,3.83
2023-04-19T10:15:51.239Z,3.90
2023-04-19T10:18:23.535Z,3.88
2023-04-19T10:20:56.331Z,3.72
2023-04-19T10:23:24.211Z,4.13
2023-04-19T10:25:56.717Z,3.33
2023-04-19T10:28:24.152Z,3.90
2023-04-19T10:30:56.269Z,3.50
2023-04-19T10:33:27.684Z,4.20
2023-04-19T10:35:59.239Z,3.63
2023-04-19T10:38:38.171Z,4.00
2023-04-19T10:41:14.413Z,3.90
2023-04-19T10:43:46.205Z,3.40
2023-04-19T10:46:36.813Z,4.05
2023-04-19T10:49:05.689Z,3.78
2023-04-19T10:51:36.670Z,3.95
2023-04-19T10:54:05.145Z,3.85
2023-04-19T10:56:59.182Z,4.00
2023-04-19T10:59:26.704Z,3.80
2023-04-19T11:01:57.510Z,3.88
2023-04-19T11:05:01.663Z,4.60
2023-04-19T11:07:38.233Z,4.50
2023-04-19T11:10:06.618Z,3.38
2023-04-19T11:12:35.130Z,3.78
2023-04-19T11:15:03.101Z,3.50
2023-04-19T11:17:32.266Z,3.42
2023-04-19T11:20:02.574Z,3.42
2023-04-19T11:22:35.869Z,6.65
2023-04-19T11:25:07.338Z,3.97
2023-04-19T11:27:35.326Z,4.55
2023-04-19T11:30:05.438Z,3.30
2023-04-19T11:32:33.433Z,3.30
2023-04-19T11:35:07.479Z,3.35
2023-04-19T11:37:36.980Z,3.30
2023-04-19T11:40:06.315Z,3.40
2023-04-19T11:42:34.071Z,2.70
2023-04-19T11:45:01.495Z,2.75
2023-04-19T11:47:29.150Z,3.38
2023-04-19T11:49:57.053Z,3.53
2023-04-19T11:52:25.508Z,3.15
2023-04-19T11:54:55.049Z,3.20
2023-04-19T11:57:29.617Z,3.80
2023-04-19T12:00:11.055Z,2.88
2023-04-19T12:02:40.884Z,3.10
2023-04-19T12:05:10.282Z,3.10
2023-04-19T12:07:38.032Z,3.60
2023-04-19T12:10:14.055Z,3.00
2023-04-19T12:12:41.614Z,3.72
2023-04-19T12:15:09.690Z,3.30
2023-04-19T12:17:57.649Z,3.90
2023-04-19T12:20:32.752Z,3.25
2023-04-19T12:23:00.465Z,3.40
2023-04-19T12:25:33.402Z,3.50
2023-04-19T12:28:02.050Z,3.30
2023-04-19T12:30:29.530Z,3.55
2023-04-19T12:32:57.088Z,3.60
2023-04-19T12:35:27.355Z,3.08
2023-04-19T12:37:55.659Z,3.70
2023-04-19T12:40:23.595Z,3.58
2023-04-19T12:42:53.000Z,3.60
2023-04-19T12:45:25.354Z,2.97
2023-04-19T12:47:55.631Z,4.10
2023-04-19T12:50:24.781Z,3.42
2023-04-19T12:53:02.165Z,3.90
2023-04-19T12:55:32.468Z,3.80
2023-04-19T12:58:02.270Z,3.72
2023-04-19T13:00:30.739Z,3.75
2023-04-19T13:02:59.781Z,3.85
2023-04-19T13:05:31.977Z,3.35
2023-04-19T13:08:02.344Z,3.63
2023-04-19T13:10:31.479Z,3.92
2023-04-19T13:13:04.536Z,3.80
2023-04-19T13:15:35.461Z,3.95
2023-04-19T13:18:03.904Z,3.75
2023-04-19T13:20:32.175Z,4.05
2023-04-19T13:23:01.142Z,3.95
2023-04-19T13:25:30.604Z,3.90
2023-04-19T13:27:59.130Z,3.63
2023-04-19T13:30:29.749Z,3.63
2023-04-19T13:32:58.586Z,3.90
2023-04-19T13:35:26.073Z,3.88
2023-04-19T13:37:53.459Z,3.88
2023-04-19T13:40:20.971Z,3.97
2023-04-19T13:42:48.423Z,3.55
2023-04-19T13:45:15.807Z,4.05
2023-04-19T13:47:43.226Z,4.68
2023-04-19T13:50:12.912Z,4.30
2023-04-19T13:52:40.440Z,4.32
2023-04-19T13:55:08.333Z,4.93
2023-04-19T13:57:35.698Z,4.38
2023-04-19T14:00:03.137Z,4.03
2023-04-19T14:02:30.784Z,3.75
2023-04-19T14:04:59.541Z,4.13
2023-04-19T14:07:28.400Z,3.70
2023-04-19T14:09:55.921Z,3.78
2023-04-19T14:12:23.347Z,3.20
2023-04-19T14:14:50.711Z,3.25
2023-04-19T14:17:18.124Z,3.90
2023-04-19T14:19:45.544Z,4.05
2023-04-19T14:22:13.505Z,4.50
2023-04-19T14:24:42.178Z,3.92
2023-04-19T14:27:11.443Z,4.05
2023-04-19T14:29:39.320Z,4.18
2023-04-19T14:32:21.580Z,3.95
2023-04-19T14:34:52.397Z,3.97
2023-04-19T14:37:19.823Z,4.10
2023-04-19T14:39:48.599Z,4.45
2023-04-19T14:42:16.113Z,4.25
2023-04-19T14:44:43.812Z,4.47
2023-04-19T14:47:11.442Z,4.53
2023-04-19T14:49:38.928Z,3.88
2023-04-19T14:52:06.304Z,4.10
2023-04-19T14:54:33.710Z,4.15
2023-04-19T14:57:02.435Z,3.67
2023-04-19T14:59:30.067Z,3.38
2023-04-19T15:01:57.759Z,3.60
2023-04-19T15:04:25.708Z,3.70
2023-04-19T15:06:53.603Z,3.38
2023-04-19T15:09:21.023Z,3.20
2023-04-19T15:11:48.378Z,4.18
2023-04-19T15:14:17.092Z,4.65
2023-04-19T15:16:44.469Z,4.32
2023-04-19T15:19:11.927Z,4.95
2023-04-19T15:21:39.295Z,4.85
2023-04-19T15:24:07.970Z,4.78
2023-04-19T15:26:35.857Z,4.20
2023-04-19T15:29:03.259Z,5.30
2023-04-19T15:31:32.550Z,4.40
2023-04-19T15:34:02.996Z,4.88
2023-04-19T15:36:31.037Z,5.22
2023-04-19T15:38:59.136Z,5.35
2023-04-19T15:41:26.592Z,4.88
2023-04-19T15:43:54.027Z,4.82
2023-04-19T15:46:21.406Z,5.07
2023-04-19T15:48:50.636Z,5.15
2023-04-19T15:51:18.100Z,4.60
2023-04-19T15:53:45.628Z,5.00
2023-04-19T15:56:13.012Z,4.70
2023-04-19T15:58:40.403Z,5.13
2023-04-19T16:01:09.515Z,5.68
2023-04-19T16:03:37.301Z,5.22
2023-04-19T16:06:06.207Z,5.10
2023-04-19T16:08:34.040Z,5.00
2023-04-19T16:11:01.561Z,4.80
2023-04-19T16:13:31.279Z,5.38
2023-04-19T16:15:58.912Z,5.45
2023-04-19T16:18:26.351Z,5.13
2023-04-19T16:20:54.647Z,5.50
2023-04-19T16:23:25.096Z,5.25
2023-04-19T16:25:53.428Z,5.05
2023-04-19T16:28:25.850Z,5.20
2023-04-19T16:30:53.570Z,5.18
2023-04-19T16:33:21.021Z,4.72
2023-04-19T16:35:51.862Z,4.70
2023-04-19T16:38:19.223Z,5.10
2023-04-19T16:40:48.601Z,4.90
2023-04-19T16:43:16.019Z,4.50
2023-04-19T16:45:43.555Z,4.35
2023-04-19T16:48:11.083Z,4.30
2023-04-19T16:50:38.512Z,4.85
2023-04-19T16:53:06.006Z,4.57
2023-04-19T16:55:33.404Z,4.35
2023-04-19T16:58:02.139Z,5.00
2023-04-19T17:00:29.989Z,4.93
2023-04-19T17:02:57.610Z,5.03
2023-04-19T17:05:28.874Z,4.90
2023-04-19T17:07:56.984Z,4.50
2023-04-19T17:10:25.201Z,5.53
2023-04-19T17:12:55.233Z,5.13
2023-04-19T17:15:24.008Z,5.00
2023-04-19T17:17:54.901Z,5.28
2023-04-19T17:20:22.319Z,4.70
2023-04-19T17:22:49.685Z,5.30
2023-04-19T17:25:17.058Z,5.30
2023-04-19T17:27:44.437Z,5.10
2023-04-19T17:30:12.580Z,5.22
2023-04-19T17:32:41.357Z,4.70
2023-04-19T17:35:09.654Z,5.10
2023-04-19T17:37:37.175Z,5.47
2023-04-19T17:40:05.226Z,5.80
2023-04-19T17:42:32.592Z,5.43
2023-04-19T17:45:00.250Z,5.88
2023-04-19T17:47:27.846Z,6.03
2023-04-19T17:50:06.568Z,6.07
2023-04-19T17:52:34.017Z,6.05
2023-04-19T17:55:02.278Z,5.65
2023-04-19T17:57:29.961Z,6.10
2023-04-19T17:59:57.316Z,5.55
2023-04-19T18:02:24.866Z,6.10
2023-04-19T18:04:52.498Z,4.90
2023-04-19T18:07:21.230Z,5.40
2023-04-19T18:09:48.577Z,5.22
2023-04-19T18:12:15.967Z,5.00
2023-04-19T18:14:43.358Z,5.13
2023-04-19T18:17:10.864Z,5.88
2023-04-19T18:19:38.290Z,4.78
2023-04-19T18:22:05.852Z,5.13
2023-04-19T18:24:35.571Z,5.30
2023-04-19T18:27:04.369Z,5.45
2023-04-19T18:29:31.944Z,5.43
2023-04-19T18:31:59.402Z,5.40
2023-04-19T18:34:28.821Z,5.13
2023-04-19T18:36:59.526Z,5.40
2023-04-19T18:39:26.996Z,5.13
2023-04-19T18:41:57.697Z,5.38
2023-04-19T18:44:49.698Z,5.15
2023-04-19T18:47:13.075Z,5.13
2023-04-19T18:49:40.489Z,5.25
2023-04-19T18:52:08.013Z,5.28
2023-04-19T18:54:35.618Z,4.82
2023-04-19T18:57:22.583Z,5.10
2023-04-19T18:59:51.661Z,4.85
2023-04-19T19:02:20.919Z,4.88
2023-04-19T19:04:56.755Z,4.82
2023-04-19T19:07:34.779Z,5.75
2023-04-19T19:10:09.628Z,5.05
2023-04-19T19:12:46.960Z,4.88
2023-04-19T19:15:14.690Z,5.38
2023-04-19T19:17:43.141Z,5.45
2023-04-19T19:20:11.294Z,4.93
2023-04-19T19:22:38.794Z,5.03
2023-04-19T19:28:06.170Z,5.07
2023-04-19T19:30:39.529Z,5.10
2023-04-19T19:33:07.045Z,5.22
2023-04-19T19:38:06.103Z,5.60
2023-04-19T19:40:33.841Z,5.50
2023-04-19T19:43:02.748Z,5.05
2023-04-19T19:45:30.514Z,5.63
2023-04-19T19:47:59.062Z,4.82
2023-04-19T19:51:05.040Z,4.55
2023-04-19T19:53:19.807Z,4.50
2023-04-19T19:55:47.179Z,4.65
2023-04-19T19:58:42.925Z,4.68
2023-04-19T20:01:04.210Z,5.00
2023-04-19T20:03:37.302Z,4.95
2023-04-19T20:06:35.725Z,4.50
2023-04-19T20:08:56.206Z,5.22
2023-04-19T20:11:25.818Z,5.10
2023-04-19T20:13:54.502Z,5.25
2023-04-19T20:16:21.920Z,5.10
2023-04-19T20:18:49.920Z,4.88
2023-04-19T20:21:19.680Z,4.82
2023-04-19T20:23:47.104Z,4.70
2023-04-19T20:26:14.487Z,4.40
2023-04-19T20:28:41.879Z,4.55
2023-04-19T20:31:10.683Z,5.38
2023-04-19T20:33:41.884Z,4.97
2023-04-19T20:36:09.455Z,5.60
2023-04-19T20:38:36.980Z,4.22
2023-04-19T20:41:04.416Z,5.10
2023-04-19T20:43:32.389Z,4.97
2023-04-19T20:45:59.883Z,4.80
2023-04-19T20:48:28.625Z,4.07
2023-04-19T20:50:56.094Z,4.90
2023-04-19T20:53:23.487Z,4.85
2023-04-19T20:55:51.808Z,4.65
2023-04-19T20:58:19.194Z,4.78
2023-04-19T21:00:46.611Z,4.93
2023-04-19T21:03:14.239Z,5.57
2023-04-19T21:05:43.046Z,4.70
2023-04-19T21:08:10.487Z,5.03
2023-04-19T21:10:37.819Z,4.88
2023-04-19T21:13:05.170Z,5.07
2023-04-19T21:15:32.602Z,4.80
2023-04-19T21:18:00.006Z,4.72
2023-04-19T21:20:27.579Z,4.82
2023-04-19T21:22:56.254Z,4.60
2023-04-19T21:25:23.866Z,6.35
2023-04-19T21:27:51.272Z,5.72
2023-04-19T21:30:20.067Z,4.15
2023-04-19T21:32:48.296Z,4.45
2023-04-19T21:35:15.759Z,4.50
2023-04-19T21:37:43.208Z,4.70
2023-04-19T21:40:12.659Z,4.80
2023-04-19T21:42:40.066Z,4.80
2023-04-19T21:45:08.978Z,5.15
2023-04-19T21:47:36.407Z,4.55
2023-04-19T21:50:04.513Z,4.20
2023-04-19T21:52:31.912Z,4.88
2023-04-19T21:54:59.350Z,4.90
2023-04-19T21:57:28.181Z,4.72
2023-04-19T21:59:55.602Z,4.60
2023-04-19T22:02:23.151Z,4.15
2023-04-19T22:04:50.813Z,4.75
2023-04-19T22:07:19.280Z,5.15
2023-04-19T22:09:46.852Z,5.60
2023-04-19T22:12:14.272Z,5.13
2023-04-19T22:14:43.271Z,5.20
2023-04-19T22:17:10.634Z,4.70
2023-04-19T22:19:38.264Z,5.05
2023-04-19T22:22:05.746Z,5.10
2023-04-19T22:24:33.833Z,4.82
2023-04-19T22:27:02.392Z,5.18
2023-04-19T22:29:29.798Z,4.60
2023-04-19T22:31:58.643Z,4.80
2023-04-19T22:34:26.179Z,4.57
2023-04-19T22:36:53.568Z,5.05
2023-04-19T22:39:21.081Z,5.07
2023-04-19T22:41:48.567Z,4.85
2023-04-19T22:44:15.932Z,4.55
2023-04-19T22:46:43.770Z,4.82
2023-04-19T22:49:12.992Z,5.20
2023-04-19T22:51:42.290Z,4.63
2023-04-19T22:54:09.665Z,4.45
2023-04-19T22:56:37.057Z,5.15
2023-04-19T22:59:04.467Z,4.55
2023-04-19T23:01:32.176Z,4.50
2023-04-19T23:03:59.611Z,5.30
2023-04-19T23:06:29.362Z,4.40
2023-04-19T23:08:56.724Z,4.70
2023-04-19T23:11:25.100Z,4.90
2023-04-19T23:13:53.696Z,5.00
2023-04-19T23:16:22.470Z,4.90
2023-04-19T23:18:49.928Z,5.03
2023-04-19T23:21:17.355Z,4.88
2023-04-19T23:23:46.081Z,4.10
2023-04-19T23:26:13.537Z,4.68
2023-04-19T23:28:40.972Z,4.10
2023-04-19T23:31:08.403Z,4.03
2023-04-19T23:33:36.151Z,4.32
2023-04-19T23:36:03.706Z,4.57
2023-04-19T23:38:31.097Z,4.43
2023-04-19T23:40:59.848Z,4.72
2023-04-19T23:43:27.280Z,3.90
2023-04-19T23:45:54.658Z,4.20
2023-04-19T23:48:22.025Z,4.70
2023-04-19T23:50:49.410Z,4.03
2023-04-19T23:53:16.775Z,4.43
2023-04-19T23:55:44.180Z,4.65
2023-04-19T23:58:12.975Z,4.95
